Philadelphia, PA (19019)

1:36 PM EST on December 05, 2016 (GMT -0500)
Society Hill, Philadelphia | | Change Station

Elev 43 ft 39.94 °N, 75.15 °W | Updated 6 minutes ago

Scattered Clouds
Scattered Clouds
50.3 °F
Feels Like 50.3 °F
N
2.0
Wind Variable Wind from NNW
Gusts 10.0 mph

Today
High -- | Low -- °F
--% Chance of Precip.
Yesterday
High -- | Low -- °F
Precip. -- in
Pressure 29.99 in
Visibility 10.0 miles
Clouds Scattered Clouds 2200 ft
Scattered Clouds 28000 ft
Dew Point 39 °F
Humidity 65%
Rainfall 0.15 in
Snow Depth Not available.
7:07 AM 4:35 PM
Waxing Crescent, 33% visible
METAR KPHL 051754Z 32013KT 10SM SCT022 SCT280 09/03 A2999 RMK AO2 SLP155 T00940033 10094 20050 58016
Pressure 29.99 in
Visibility 10.0 miles
Clouds Scattered Clouds 2200 ft
Scattered Clouds 28000 ft
Dew Point 39 °F
Humidity 65%
Rainfall 0.15 in
Snow Depth Not available.
7:07 AM 4:35 PM
Waxing Crescent, 33% visible
METAR KPHL 051754Z 32013KT 10SM SCT022 SCT280 09/03 A2999 RMK AO2 SLP155 T00940033 10094 20050 58016

10-Day Weather Forecast

Almanac

Astronomy

Dec. 05, 2016 Rise Set
Actual Time
Civil Twilight
Nautical Twilight
Astronomical Twilight
Moon
Length of Visible Light
Length of Day
Tomorrow will be .
, % of the Moon is Illuminated

Today's Extremes

State Highs State Lows

Community

WunderPhotos

Upload Photos

1,955,849 photos uploaded!

WunderBlog® & News

Nearby

Air Quality

  Air Quality AQ Index Pollutant
Not available.

Snow Depth

Station Depth Elevation

Earthquake Activity

City Distance Mag. Time & Date
Minimum magnitude displayed is 2.5.

Coastal Water Temperatures

Place Temperature

Stations

Nearby Weather Stations

Station Location Temp. Windchill Dew Point Humidity Wind Precip. Elev Updated Type
                   

Watches & Warnings

There are currently no watches in effect.